createdAt,value
2022-08-21T00:00:24.527Z,4.40
2022-08-21T00:03:02.217Z,3.67
2022-08-21T00:05:30.219Z,4.20
2022-08-21T00:07:57.175Z,3.93
2022-08-21T00:10:25.052Z,4.00
2022-08-21T00:12:52.087Z,5.23
2022-08-21T00:15:22.871Z,4.40
2022-08-21T00:17:50.023Z,4.23
2022-08-21T00:20:17.893Z,3.83
2022-08-21T00:22:45.139Z,3.40
2022-08-21T00:25:13.646Z,4.30
2022-08-21T00:27:43.232Z,3.93
2022-08-21T00:30:12.092Z,3.57
2022-08-21T00:32:49.588Z,4.00
2022-08-21T00:35:19.484Z,3.80
2022-08-21T00:37:46.251Z,3.53
2022-08-21T00:40:16.619Z,3.37
2022-08-21T00:42:44.780Z,3.60
2022-08-21T00:45:21.821Z,4.60
2022-08-21T00:47:48.783Z,4.30
2022-08-21T00:50:17.468Z,4.17
2022-08-21T00:52:50.900Z,4.00
2022-08-21T00:55:17.953Z,3.93
2022-08-21T00:57:50.388Z,4.53
2022-08-21T01:00:26.353Z,4.77
2022-08-21T01:02:53.111Z,3.83
2022-08-21T01:05:19.968Z,4.37
2022-08-21T01:07:46.804Z,5.80
2022-08-21T01:10:23.729Z,4.43
2022-08-21T01:12:56.133Z,4.40
2022-08-21T01:15:25.612Z,4.73
2022-08-21T01:17:53.234Z,4.00
2022-08-21T01:20:20.343Z,4.90
2022-08-21T01:22:47.170Z,5.00
2022-08-21T01:25:16.062Z,4.70
2022-08-21T01:27:43.354Z,4.73
2022-08-21T01:30:24.476Z,5.17
2022-08-21T01:32:52.284Z,4.67
2022-08-21T01:35:20.652Z,4.97
2022-08-21T01:37:48.773Z,4.57
2022-08-21T01:40:17.629Z,5.20
2022-08-21T01:42:45.457Z,4.40
2022-08-21T01:45:13.201Z,5.13
2022-08-21T01:47:40.202Z,5.10
2022-08-21T01:50:11.111Z,4.80
2022-08-21T01:52:37.854Z,5.20
2022-08-21T01:55:06.914Z,5.47
2022-08-21T01:57:33.984Z,4.90
2022-08-21T02:00:01.136Z,5.20
2022-08-21T02:02:27.924Z,5.87
2022-08-21T02:04:54.651Z,5.37
2022-08-21T02:07:22.268Z,5.00
2022-08-21T02:09:49.303Z,4.87
2022-08-21T02:12:16.427Z,4.70
2022-08-21T02:14:43.167Z,4.77
2022-08-21T02:17:10.019Z,5.70
2022-08-21T02:19:39.678Z,5.33
2022-08-21T02:22:08.606Z,4.90
2022-08-21T02:24:35.344Z,5.30
2022-08-21T02:27:05.404Z,4.63
2022-08-21T02:29:32.165Z,5.43
2022-08-21T02:31:59.795Z,4.93
2022-08-21T02:34:29.178Z,4.70
2022-08-21T02:36:59.345Z,5.00
2022-08-21T02:39:27.331Z,5.37
2022-08-21T02:41:54.535Z,5.63
2022-08-21T02:44:21.290Z,5.53
2022-08-21T02:46:57.268Z,4.97
2022-08-21T02:49:24.007Z,5.23
2022-08-21T02:51:50.739Z,5.70
2022-08-21T02:54:17.488Z,4.50
2022-08-21T02:56:44.259Z,4.93
2022-08-21T02:59:10.991Z,5.57
2022-08-21T03:01:38.388Z,4.73
2022-08-21T03:04:05.320Z,5.57
2022-08-21T03:06:32.053Z,5.00
2022-08-21T03:08:58.813Z,5.47
2022-08-21T03:11:27.454Z,5.20
2022-08-21T03:13:54.250Z,5.23
2022-08-21T03:16:21.691Z,5.37
2022-08-21T03:18:48.531Z,5.50
2022-08-21T03:21:15.425Z,5.27
2022-08-21T03:23:43.006Z,5.33
2022-08-21T03:26:11.742Z,6.57
2022-08-21T03:28:38.860Z,5.40
2022-08-21T03:31:06.593Z,6.03
2022-08-21T03:33:33.464Z,6.43
2022-08-21T03:36:11.303Z,5.67
2022-08-21T03:38:39.240Z,5.50
2022-08-21T03:41:06.995Z,5.60
2022-08-21T03:43:36.055Z,6.00
2022-08-21T03:46:04.458Z,4.90
2022-08-21T03:48:32.903Z,5.40
2022-08-21T03:50:59.779Z,5.17
2022-08-21T03:53:27.048Z,5.63
2022-08-21T03:55:54.566Z,5.10
2022-08-21T03:58:24.366Z,5.80
2022-08-21T04:00:53.747Z,4.93
2022-08-21T04:03:21.067Z,5.27
2022-08-21T04:05:48.266Z,5.33
2022-08-21T04:08:18.261Z,4.77
2022-08-21T04:10:47.232Z,4.40
2022-08-21T04:13:15.567Z,5.67
2022-08-21T04:15:42.646Z,4.97
2022-08-21T04:18:09.529Z,6.17
2022-08-21T04:20:36.508Z,5.47
2022-08-21T04:23:03.634Z,5.17
2022-08-21T04:25:30.448Z,5.43
2022-08-21T04:27:57.720Z,4.70
2022-08-21T04:30:28.327Z,5.00
2022-08-21T04:32:58.422Z,5.50
2022-08-21T04:35:27.380Z,6.40
2022-08-21T04:37:54.733Z,5.90
2022-08-21T04:40:22.471Z,5.43
2022-08-21T04:42:52.381Z,5.83
2022-08-21T04:45:30.001Z,6.47
2022-08-21T04:47:59.203Z,5.07
2022-08-21T04:50:30.148Z,5.40
2022-08-21T04:52:57.343Z,5.80
2022-08-21T04:55:25.431Z,4.87
2022-08-21T04:57:54.470Z,5.30
2022-08-21T05:00:25.557Z,5.67
2022-08-21T05:02:59.975Z,5.30
2022-08-21T05:05:29.980Z,4.90
2022-08-21T05:08:00.093Z,5.60
2022-08-21T05:10:27.479Z,5.57
2022-08-21T05:12:55.028Z,5.53
2022-08-21T05:15:22.084Z,5.00
2022-08-21T05:17:52.349Z,5.10
2022-08-21T05:20:26.132Z,5.77
2022-08-21T05:22:52.859Z,5.47
2022-08-21T05:25:19.726Z,6.07
2022-08-21T05:27:49.137Z,6.07
2022-08-21T05:30:19.021Z,6.00
2022-08-21T05:32:45.731Z,6.33
2022-08-21T05:35:12.461Z,5.77
2022-08-21T05:37:39.287Z,5.40
2022-08-21T05:40:20.923Z,6.10
2022-08-21T05:42:55.033Z,4.97
2022-08-21T05:45:42.121Z,6.50
2022-08-21T05:48:19.060Z,5.87
2022-08-21T05:50:47.753Z,6.33
2022-08-21T05:53:16.442Z,6.20
2022-08-21T05:55:46.502Z,6.03
2022-08-21T05:58:19.781Z,6.00
2022-08-21T06:00:48.648Z,6.70
2022-08-21T06:03:22.695Z,6.07
2022-08-21T06:05:49.596Z,6.17
2022-08-21T06:08:17.309Z,6.70
2022-08-21T06:10:44.907Z,5.80
2022-08-21T06:13:11.912Z,6.93
2022-08-21T06:15:39.026Z,6.07
2022-08-21T06:18:06.434Z,7.00
2022-08-21T06:20:33.634Z,7.67
2022-08-21T06:23:01.044Z,6.50
2022-08-21T06:25:27.913Z,6.33
2022-08-21T06:28:00.996Z,6.50
2022-08-21T06:30:28.379Z,6.17
2022-08-21T06:32:55.129Z,6.43
2022-08-21T06:35:22.369Z,5.63
2022-08-21T06:37:49.147Z,6.00
2022-08-21T06:40:15.992Z,6.73
2022-08-21T06:42:43.089Z,5.83
2022-08-21T06:45:11.457Z,6.97
2022-08-21T06:47:38.385Z,6.77
2022-08-21T06:50:08.496Z,6.30
2022-08-21T06:52:36.716Z,5.50
2022-08-21T06:55:06.882Z,6.67
2022-08-21T06:57:33.860Z,5.73
2022-08-21T07:00:00.589Z,7.73
2022-08-21T07:02:27.478Z,6.30
2022-08-21T07:04:54.311Z,6.37
2022-08-21T07:07:21.087Z,6.63
2022-08-21T07:09:47.810Z,7.33
2022-08-21T07:12:14.680Z,8.40
2022-08-21T07:14:41.495Z,8.27
2022-08-21T07:17:08.227Z,8.20
2022-08-21T07:19:34.950Z,7.27
2022-08-21T07:22:04.579Z,8.73
2022-08-21T07:24:31.413Z,8.00
2022-08-21T07:26:58.163Z,7.87
2022-08-21T07:29:24.900Z,8.20
2022-08-21T07:31:51.647Z,7.50
2022-08-21T07:34:18.435Z,8.90
2022-08-21T07:36:45.235Z,7.90
2022-08-21T07:39:12.069Z,7.80
2022-08-21T07:41:38.925Z,8.57
2022-08-21T07:44:06.592Z,8.03
2022-08-21T07:46:33.534Z,8.03
2022-08-21T07:49:00.306Z,8.50
2022-08-21T07:51:29.230Z,8.40
2022-08-21T07:53:58.537Z,8.23
2022-08-21T07:56:25.740Z,7.10
2022-08-21T07:58:52.626Z,7.60
2022-08-21T08:01:20.014Z,6.20
2022-08-21T08:03:47.401Z,7.53
2022-08-21T08:06:14.896Z,6.70
2022-08-21T08:08:42.660Z,6.90
2022-08-21T08:11:16.249Z,6.10
2022-08-21T08:13:48.698Z,5.93
2022-08-21T08:16:16.498Z,5.80
2022-08-21T08:18:43.764Z,5.80
2022-08-21T08:21:12.107Z,4.27
2022-08-21T08:23:39.716Z,5.30
2022-08-21T08:26:06.716Z,5.33
2022-08-21T08:28:34.084Z,3.93
2022-08-21T08:31:01.646Z,3.63
2022-08-21T08:33:28.636Z,4.10
2022-08-21T08:35:55.783Z,3.50
2022-08-21T08:38:25.665Z,3.03
2022-08-21T08:41:15.770Z,2.50
2022-08-21T08:43:50.420Z,3.93
2022-08-21T08:46:21.818Z,3.03
2022-08-21T08:49:00.977Z,2.60
2022-08-21T08:51:44.162Z,2.27
2022-08-21T08:54:17.313Z,3.03
2022-08-21T08:56:45.405Z,2.27
2022-08-21T08:59:21.454Z,2.63
2022-08-21T09:01:48.724Z,2.20
2022-08-21T09:04:23.361Z,2.20
2022-08-21T09:07:07.974Z,2.40
2022-08-21T09:09:46.815Z,2.07
2022-08-21T09:12:18.178Z,2.23
2022-08-21T09:15:13.523Z,3.23
2022-08-21T09:17:58.938Z,2.30
2022-08-21T09:20:52.816Z,2.63
2022-08-21T09:23:38.110Z,1.97
2022-08-21T09:26:18.189Z,2.20
2022-08-21T09:28:47.239Z,1.77
2022-08-21T09:31:35.335Z,2.80
2022-08-21T09:34:05.830Z,2.00
2022-08-21T09:36:48.978Z,2.43
2022-08-21T09:39:29.646Z,2.30
2022-08-21T09:41:58.060Z,2.93
2022-08-21T09:44:44.839Z,4.63
2022-08-21T09:47:16.013Z,2.20
2022-08-21T09:49:44.086Z,2.50
2022-08-21T09:52:23.280Z,2.33
2022-08-21T09:54:54.120Z,2.30
2022-08-21T09:57:46.290Z,2.03
2022-08-21T10:00:30.606Z,2.30
2022-08-21T10:03:15.107Z,2.20
2022-08-21T10:06:02.913Z,2.63
2022-08-21T10:08:30.860Z,2.40
2022-08-21T10:11:04.110Z,2.43
2022-08-21T10:13:49.429Z,2.23
2022-08-21T10:16:29.082Z,3.10
2022-08-21T10:19:23.751Z,2.10
2022-08-21T10:21:57.744Z,3.20
2022-08-21T10:24:33.067Z,1.80
2022-08-21T10:27:26.223Z,2.20
2022-08-21T10:29:56.724Z,3.37
2022-08-21T10:32:59.857Z,3.73
2022-08-21T10:35:33.224Z,2.30
2022-08-21T10:38:09.568Z,2.70
2022-08-21T10:40:46.707Z,2.17
2022-08-21T10:43:34.792Z,1.97
2022-08-21T10:46:18.670Z,2.00
2022-08-21T10:49:05.868Z,2.10
2022-08-21T10:51:39.979Z,2.30
2022-08-21T10:54:23.320Z,2.23
2022-08-21T10:56:57.580Z,2.37
2022-08-21T10:59:42.176Z,1.60
2022-08-21T11:02:18.541Z,2.53
2022-08-21T11:05:00.403Z,2.07
2022-08-21T11:07:32.259Z,2.23
2022-08-21T11:10:11.724Z,1.50
2022-08-21T11:12:51.669Z,1.80
2022-08-21T11:15:28.905Z,1.80
2022-08-21T11:18:27.518Z,1.90
2022-08-21T11:21:20.307Z,1.90
2022-08-21T11:23:55.198Z,1.63
2022-08-21T11:26:55.742Z,1.57
2022-08-21T11:29:28.470Z,1.93
2022-08-21T11:32:16.427Z,1.87
2022-08-21T11:35:01.360Z,1.47
2022-08-21T11:37:43.360Z,1.70
2022-08-21T11:40:34.295Z,1.53
2022-08-21T11:43:28.607Z,1.80
2022-08-21T11:46:01.646Z,0.90
2022-08-21T11:48:43.395Z,1.60
2022-08-21T11:51:19.689Z,1.60
2022-08-21T11:54:07.536Z,1.70
2022-08-21T11:56:44.208Z,1.40
2022-08-21T11:59:21.814Z,1.50
2022-08-21T12:01:51.676Z,1.37
2022-08-21T12:04:30.858Z,1.70
2022-08-21T12:07:10.817Z,2.03
2022-08-21T12:09:37.763Z,2.47
2022-08-21T12:12:23.120Z,1.57
2022-08-21T12:14:52.524Z,1.30
2022-08-21T12:17:24.467Z,1.30
2022-08-21T12:20:02.407Z,1.50
2022-08-21T12:22:41.910Z,1.67
2022-08-21T12:25:21.555Z,1.17
2022-08-21T12:28:02.980Z,1.37
2022-08-21T12:30:29.794Z,1.73
2022-08-21T12:33:03.057Z,1.17
2022-08-21T12:35:50.543Z,1.50
2022-08-21T12:38:33.153Z,1.20
2022-08-21T12:41:06.806Z,1.67
2022-08-21T12:43:44.063Z,1.10
2022-08-21T12:46:23.556Z,1.60
2022-08-21T12:48:57.540Z,1.10
2022-08-21T12:51:30.323Z,1.20
2022-08-21T12:53:59.343Z,1.13
2022-08-21T12:56:29.250Z,1.40
2022-08-21T12:59:06.187Z,1.23
2022-08-21T13:01:50.313Z,0.90
2022-08-21T13:04:22.588Z,0.80
2022-08-21T13:06:53.841Z,1.00
2022-08-21T13:09:26.412Z,2.27
2022-08-21T13:11:53.763Z,1.90
2022-08-21T13:14:45.395Z,1.17
2022-08-21T13:17:23.394Z,1.47
2022-08-21T13:20:21.619Z,1.30
2022-08-21T13:22:48.712Z,1.70
2022-08-21T13:25:18.060Z,1.23
2022-08-21T13:27:58.002Z,1.30
2022-08-21T13:30:25.242Z,0.80
2022-08-21T13:32:58.347Z,1.17
2022-08-21T13:35:29.832Z,0.93
2022-08-21T13:37:57.631Z,0.70
2022-08-21T13:40:33.028Z,1.20
2022-08-21T13:43:01.294Z,1.40
2022-08-21T13:45:32.900Z,1.00
2022-08-21T13:48:06.189Z,1.13
2022-08-21T13:50:36.496Z,1.20
2022-08-21T13:53:06.825Z,1.00
2022-08-21T13:55:43.933Z,1.13
2022-08-21T13:58:12.183Z,0.70
2022-08-21T14:00:49.674Z,1.27
2022-08-21T14:03:58.915Z,1.17
2022-08-21T14:06:28.487Z,1.20
2022-08-21T14:09:09.386Z,1.10
2022-08-21T14:11:37.447Z,1.30
2022-08-21T14:14:26.455Z,1.07
2022-08-21T14:17:11.162Z,1.40
2022-08-21T14:19:49.275Z,1.13
2022-08-21T14:22:44.473Z,2.07
2022-08-21T14:25:29.323Z,1.20
2022-08-21T14:28:03.538Z,1.30
2022-08-21T14:30:40.246Z,1.27
2022-08-21T14:33:12.748Z,1.47
2022-08-21T14:35:40.724Z,1.73
2022-08-21T14:38:19.121Z,1.57
2022-08-21T14:40:50.672Z,0.77
2022-08-21T14:43:20.011Z,1.03
2022-08-21T14:45:47.348Z,1.10
2022-08-21T14:48:14.216Z,1.10
2022-08-21T14:50:41.396Z,1.07
2022-08-21T14:53:11.083Z,0.83
2022-08-21T14:55:58.322Z,0.97
2022-08-21T14:58:26.242Z,1.20
2022-08-21T15:00:54.906Z,1.90
2022-08-21T15:03:25.082Z,0.87
2022-08-21T15:05:52.771Z,0.90
2022-08-21T15:08:19.590Z,1.10
2022-08-21T15:11:10.016Z,1.00
2022-08-21T15:13:34.213Z,1.27
2022-08-21T15:16:00.991Z,0.87
2022-08-21T15:18:30.141Z,0.93
2022-08-21T15:20:57.655Z,0.80
2022-08-21T15:23:24.514Z,0.80
2022-08-21T15:25:52.931Z,1.17
2022-08-21T15:28:21.237Z,0.80
2022-08-21T15:30:48.915Z,1.17
2022-08-21T15:33:15.768Z,1.07
2022-08-21T15:35:42.653Z,1.10
2022-08-21T15:38:11.208Z,1.30
2022-08-21T15:40:38.887Z,1.40
2022-08-21T15:43:06.347Z,1.30
2022-08-21T15:45:34.340Z,1.50
2022-08-21T15:48:01.851Z,1.83
2022-08-21T15:50:29.903Z,1.50
2022-08-21T15:52:56.682Z,1.03
2022-08-21T15:55:24.416Z,1.03
2022-08-21T15:57:57.990Z,1.50
2022-08-21T16:00:25.452Z,1.47
2022-08-21T16:02:58.088Z,1.10
2022-08-21T16:05:25.109Z,1.00
2022-08-21T16:07:52.526Z,0.87
2022-08-21T16:10:24.214Z,1.50
2022-08-21T16:12:59.790Z,1.20
2022-08-21T16:15:27.227Z,1.13
2022-08-21T16:17:55.316Z,1.13
2022-08-21T16:20:26.524Z,1.27
2022-08-21T16:22:55.029Z,1.40
2022-08-21T16:25:22.338Z,1.87
2022-08-21T16:27:59.275Z,1.30
2022-08-21T16:30:27.441Z,1.40
2022-08-21T16:32:54.739Z,1.90
2022-08-21T16:35:22.482Z,0.90
2022-08-21T16:37:52.909Z,0.90
2022-08-21T16:40:22.934Z,1.13
2022-08-21T16:42:50.050Z,1.00
2022-08-21T16:45:21.090Z,1.60
2022-08-21T16:47:48.013Z,1.20
2022-08-21T16:50:22.415Z,1.47
2022-08-21T16:52:49.864Z,1.83
2022-08-21T16:55:17.359Z,1.80
2022-08-21T16:57:44.469Z,0.87
2022-08-21T17:00:15.558Z,1.77
2022-08-21T17:02:49.439Z,1.50
2022-08-21T17:05:16.997Z,1.60
2022-08-21T17:07:44.382Z,1.70
2022-08-21T17:10:13.766Z,1.30
2022-08-21T17:12:41.958Z,2.00
2022-08-21T17:15:25.013Z,1.23
2022-08-21T17:17:52.415Z,1.40
2022-08-21T17:20:20.766Z,1.40
2022-08-21T17:22:47.815Z,1.50
2022-08-21T17:25:15.046Z,2.40
2022-08-21T17:27:43.958Z,1.33
2022-08-21T17:30:11.767Z,2.03
2022-08-21T17:32:38.964Z,1.13
2022-08-21T17:35:06.482Z,2.00
2022-08-21T17:37:33.951Z,1.37
2022-08-21T17:40:00.863Z,0.93
2022-08-21T17:42:27.663Z,1.90
2022-08-21T17:44:56.617Z,2.23
2022-08-21T17:47:24.290Z,1.30
2022-08-21T17:49:51.408Z,1.20
2022-08-21T17:52:18.290Z,1.40
2022-08-21T17:54:45.183Z,1.33
2022-08-21T17:57:19.910Z,1.50
2022-08-21T17:59:51.013Z,1.83
2022-08-21T18:02:21.769Z,1.27
2022-08-21T18:04:50.584Z,1.43
2022-08-21T18:07:25.329Z,1.27
2022-08-21T18:10:01.077Z,1.60
2022-08-21T18:12:28.112Z,1.60
2022-08-21T18:14:54.936Z,1.70
2022-08-21T18:17:22.517Z,1.57
2022-08-21T18:19:49.587Z,1.57
2022-08-21T18:22:16.641Z,2.03
2022-08-21T18:24:44.318Z,1.70
2022-08-21T18:27:12.506Z,1.73
2022-08-21T18:29:47.543Z,1.70
2022-08-21T18:32:30.791Z,1.50
2022-08-21T18:35:01.646Z,1.37
2022-08-21T18:37:29.401Z,1.57
2022-08-21T18:39:56.417Z,1.50
2022-08-21T18:42:29.210Z,1.57
2022-08-21T18:45:00.997Z,1.70
2022-08-21T18:47:37.101Z,2.03
2022-08-21T18:50:06.095Z,2.03
2022-08-21T18:52:38.226Z,2.50
2022-08-21T18:55:13.182Z,2.17
2022-08-21T18:57:42.436Z,2.03
2022-08-21T19:00:17.905Z,1.70
2022-08-21T19:02:44.716Z,1.90
2022-08-21T19:05:15.414Z,2.20
2022-08-21T19:07:45.860Z,2.20
2022-08-21T19:10:27.663Z,2.37
2022-08-21T19:13:01.945Z,1.90
2022-08-21T19:15:30.470Z,1.57
2022-08-21T19:17:58.180Z,1.67
2022-08-21T19:20:34.438Z,1.73
2022-08-21T19:23:02.912Z,2.10
2022-08-21T19:25:33.335Z,2.10
2022-08-21T19:28:12.335Z,1.93
2022-08-21T19:30:48.019Z,2.07
2022-08-21T19:33:23.809Z,1.90
2022-08-21T19:35:52.629Z,2.70
2022-08-21T19:38:19.870Z,1.97
2022-08-21T19:40:47.061Z,2.43
2022-08-21T19:43:14.431Z,1.73
2022-08-21T19:45:41.232Z,2.30
2022-08-21T19:48:08.426Z,2.50
2022-08-21T19:50:35.199Z,1.97
2022-08-21T19:53:02.016Z,1.97
2022-08-21T19:55:29.036Z,2.30
2022-08-21T19:57:56.150Z,1.90
2022-08-21T20:00:24.119Z,2.90
2022-08-21T20:02:51.138Z,2.03
2022-08-21T20:05:18.221Z,2.70
2022-08-21T20:07:45.347Z,2.23
2022-08-21T20:10:13.048Z,2.30
2022-08-21T20:12:41.684Z,2.10
2022-08-21T20:15:09.324Z,2.13
2022-08-21T20:17:36.300Z,2.43
2022-08-21T20:20:04.695Z,2.03
2022-08-21T20:22:31.554Z,2.93
2022-08-21T20:24:59.064Z,1.70
2022-08-21T20:27:27.725Z,2.20
2022-08-21T20:29:55.342Z,2.50
2022-08-21T20:32:22.701Z,2.20
2022-08-21T20:34:52.120Z,1.93
2022-08-21T20:37:35.996Z,1.40
2022-08-21T20:40:10.278Z,1.70
2022-08-21T20:42:44.760Z,1.87
2022-08-21T20:45:18.595Z,2.70
2022-08-21T20:47:45.562Z,1.90
2022-08-21T20:50:16.926Z,2.20
2022-08-21T20:52:48.032Z,1.60
2022-08-21T20:55:18.487Z,1.80
2022-08-21T20:58:07.574Z,2.50
2022-08-21T21:00:40.145Z,1.67
2022-08-21T21:03:07.236Z,1.83
2022-08-21T21:05:54.025Z,2.07
2022-08-21T21:08:30.024Z,1.50
2022-08-21T21:11:03.068Z,1.83
2022-08-21T21:13:43.014Z,1.80
2022-08-21T21:16:33.032Z,2.27
2022-08-21T21:19:06.166Z,2.43
2022-08-21T21:21:52.157Z,2.30
2022-08-21T21:25:06.184Z,1.80
2022-08-21T21:27:49.860Z,1.83
2022-08-21T21:33:30.535Z,2.40
2022-08-21T21:36:14.935Z,1.73
2022-08-21T21:39:02.893Z,2.57
2022-08-21T21:41:34.008Z,2.00
2022-08-21T21:44:03.731Z,2.60
2022-08-21T21:46:39.246Z,2.17
2022-08-21T21:49:33.147Z,2.27
2022-08-21T21:52:29.978Z,2.40
2022-08-21T21:55:05.447Z,2.80
2022-08-21T21:57:52.344Z,2.30
2022-08-21T22:00:26.716Z,2.60
2022-08-21T22:03:09.314Z,2.10
2022-08-21T22:06:00.333Z,2.27
2022-08-21T22:12:00.908Z,2.53
2022-08-21T22:14:37.338Z,2.67
2022-08-21T22:17:30.087Z,2.37
2022-08-21T22:19:59.719Z,2.40
2022-08-21T22:22:29.325Z,2.23
2022-08-21T22:25:20.850Z,2.67
2022-08-21T22:27:56.705Z,2.33
2022-08-21T22:30:51.383Z,2.30
2022-08-21T22:33:27.049Z,2.60
2022-08-21T22:35:58.700Z,4.00
2022-08-21T22:38:33.454Z,2.13
2022-08-21T22:41:13.702Z,2.33
2022-08-21T22:43:56.051Z,2.33
2022-08-21T22:46:44.927Z,3.00
2022-08-21T22:49:21.208Z,2.47
2022-08-21T22:51:58.182Z,2.40
2022-08-21T22:54:34.986Z,2.70
2022-08-21T22:57:05.437Z,2.30
2022-08-21T22:59:34.994Z,2.50
2022-08-21T23:02:30.612Z,3.13
2022-08-21T23:05:00.174Z,2.10
2022-08-21T23:07:43.481Z,2.57
2022-08-21T23:10:29.289Z,2.57
2022-08-21T23:13:06.196Z,2.30
2022-08-21T23:15:55.288Z,2.80
2022-08-21T23:19:01.656Z,2.60
2022-08-21T23:21:42.231Z,1.93
2022-08-21T23:24:27.895Z,2.43
2022-08-21T23:27:32.555Z,2.33
2022-08-21T23:30:07.323Z,2.70
2022-08-21T23:33:18.959Z,2.40
2022-08-21T23:36:16.635Z,2.47
2022-08-21T23:39:11.052Z,2.30
2022-08-21T23:41:51.222Z,2.70
2022-08-21T23:44:44.082Z,2.63
2022-08-21T23:47:19.124Z,3.10
2022-08-21T23:49:53.716Z,2.43
2022-08-21T23:52:39.564Z,4.43
2022-08-21T23:55:36.333Z,2.70
2022-08-21T23:58:15.045Z,2.90
